Startpagina
METAR-TAF:

METAR-TAF

Vliegvelden :

Vlissingen, Nederland

breedte: 51-27N, lengte: 3-36E, hoogte: 10 m

Actueel weer

Dit bericht is 40 minuten geleden gemaakt, om 15:55 UTC
Wind 12 kt uit het westen
Temperatuur 14°C
Vochtigheid 88%
Druk 1005 hPa
Zicht 10 km of meer

METAR: EHFS 151555Z AUTO 26012KT 9999 BKN032/// OVC036/// 14/12 Q1005 W///H///

Tijdstip: 18:35 (16:35 UTC)


TAF: ontbreekt

Waarnemingen en weersverwachtingen van meer dan 4000 vliegvelden (METAR en TAF).

De beschikbare stations zijn de gele en rode punten op de kaart.

Ga met uw muis naar het station om de naam te zien.

Klik dan om waarnemingen en weersverwachtingen te zien.

kaart wijzigen: klik op de groene knoppen met een zwart kruis om in te zoomen, op de groene knop met een streepje om uit te zoomen of op de groene pijlen voor aangrenzende kaarten.


METAR-TAF: